sensor_id;sensor_type;location;lat;lon;timestamp;P1;durP1;ratioP1;P2;durP2;ratioP2
32810;SDS011;65470;47.324;8.548;2023-06-22T00:02:17;14.93;;;9.20;;
32810;SDS011;65470;47.324;8.548;2023-06-22T00:04:43;14.85;;;8.85;;
32810;SDS011;65470;47.324;8.548;2023-06-22T00:07:09;16.25;;;9.10;;
32810;SDS011;65470;47.324;8.548;2023-06-22T00:09:34;16.00;;;8.80;;
32810;SDS011;65470;47.324;8.548;2023-06-22T00:12:01;16.45;;;9.10;;
32810;SDS011;65470;47.324;8.548;2023-06-22T00:14:27;19.02;;;9.02;;
32810;SDS011;65470;47.324;8.548;2023-06-22T00:16:52;16.85;;;8.98;;
32810;SDS011;65470;47.324;8.548;2023-06-22T00:19:22;14.32;;;9.18;;
32810;SDS011;65470;47.324;8.548;2023-06-22T00:21:48;18.17;;;9.18;;
32810;SDS011;65470;47.324;8.548;2023-06-22T00:24:18;15.80;;;9.00;;
32810;SDS011;65470;47.324;8.548;2023-06-22T00:26:49;14.80;;;9.25;;
32810;SDS011;65470;47.324;8.548;2023-06-22T00:29:15;18.55;;;9.93;;
32810;SDS011;65470;47.324;8.548;2023-06-22T00:31:42;16.20;;;9.13;;
32810;SDS011;65470;47.324;8.548;2023-06-22T00:34:07;18.00;;;8.90;;
32810;SDS011;65470;47.324;8.548;2023-06-22T00:36:34;12.15;;;9.13;;
32810;SDS011;65470;47.324;8.548;2023-06-22T00:39:00;18.42;;;9.10;;
32810;SDS011;65470;47.324;8.548;2023-06-22T00:41:25;15.20;;;8.30;;
32810;SDS011;65470;47.324;8.548;2023-06-22T00:43:53;16.55;;;8.50;;
32810;SDS011;65470;47.324;8.548;2023-06-22T00:46:19;20.95;;;8.93;;
32810;SDS011;65470;47.324;8.548;2023-06-22T00:48:45;13.50;;;8.35;;
32810;SDS011;65470;47.324;8.548;2023-06-22T00:51:11;16.38;;;9.57;;
32810;SDS011;65470;47.324;8.548;2023-06-22T00:53:37;13.43;;;8.48;;
32810;SDS011;65470;47.324;8.548;2023-06-22T00:56:02;18.00;;;8.80;;
32810;SDS011;65470;47.324;8.548;2023-06-22T00:58:30;17.40;;;9.05;;
32810;SDS011;65470;47.324;8.548;2023-06-22T01:00:56;21.08;;;9.45;;
32810;SDS011;65470;47.324;8.548;2023-06-22T01:03:22;12.90;;;8.13;;
32810;SDS011;65470;47.324;8.548;2023-06-22T01:05:47;17.10;;;8.95;;
32810;SDS011;65470;47.324;8.548;2023-06-22T01:08:29;14.73;;;8.00;;
32810;SDS011;65470;47.324;8.548;2023-06-22T01:11:07;18.17;;;9.00;;
32810;SDS011;65470;47.324;8.548;2023-06-22T01:13:44;13.10;;;8.45;;
32810;SDS011;65470;47.324;8.548;2023-06-22T01:16:33;12.50;;;9.35;;
32810;SDS011;65470;47.324;8.548;2023-06-22T01:19:01;15.70;;;8.98;;
32810;SDS011;65470;47.324;8.548;2023-06-22T01:21:41;20.17;;;8.63;;
32810;SDS011;65470;47.324;8.548;2023-06-22T01:24:22;18.52;;;8.65;;
32810;SDS011;65470;47.324;8.548;2023-06-22T01:30:10;17.13;;;8.90;;
32810;SDS011;65470;47.324;8.548;2023-06-22T01:32:39;13.48;;;8.57;;
32810;SDS011;65470;47.324;8.548;2023-06-22T01:35:06;20.58;;;9.30;;
32810;SDS011;65470;47.324;8.548;2023-06-22T01:37:34;17.35;;;9.20;;
32810;SDS011;65470;47.324;8.548;2023-06-22T01:40:02;15.63;;;8.88;;
32810;SDS011;65470;47.324;8.548;2023-06-22T01:42:32;14.55;;;8.98;;
32810;SDS011;65470;47.324;8.548;2023-06-22T01:44:58;12.20;;;9.63;;
32810;SDS011;65470;47.324;8.548;2023-06-22T01:47:25;18.45;;;10.00;;
32810;SDS011;65470;47.324;8.548;2023-06-22T01:49:52;17.60;;;8.82;;
32810;SDS011;65470;47.324;8.548;2023-06-22T01:52:18;15.02;;;10.45;;
32810;SDS011;65470;47.324;8.548;2023-06-22T01:54:46;15.63;;;9.93;;
32810;SDS011;65470;47.324;8.548;2023-06-22T01:57:12;13.40;;;9.18;;
32810;SDS011;65470;47.324;8.548;2023-06-22T01:59:39;16.90;;;9.52;;
32810;SDS011;65470;47.324;8.548;2023-06-22T02:05:28;21.67;;;10.35;;
32810;SDS011;65470;47.324;8.548;2023-06-22T02:08:01;15.85;;;9.90;;
32810;SDS011;65470;47.324;8.548;2023-06-22T02:10:47;15.95;;;10.13;;
32810;SDS011;65470;47.324;8.548;2023-06-22T02:13:14;18.05;;;10.10;;
32810;SDS011;65470;47.324;8.548;2023-06-22T02:15:40;15.20;;;9.88;;
32810;SDS011;65470;47.324;8.548;2023-06-22T02:18:06;15.10;;;10.55;;
32810;SDS011;65470;47.324;8.548;2023-06-22T02:20:32;15.30;;;10.43;;
32810;SDS011;65470;47.324;8.548;2023-06-22T02:23:01;14.52;;;9.68;;
32810;SDS011;65470;47.324;8.548;2023-06-22T02:25:26;16.65;;;10.10;;
32810;SDS011;65470;47.324;8.548;2023-06-22T02:27:52;20.02;;;10.73;;
32810;SDS011;65470;47.324;8.548;2023-06-22T02:30:17;18.52;;;10.50;;
32810;SDS011;65470;47.324;8.548;2023-06-22T02:32:43;17.20;;;10.57;;
32810;SDS011;65470;47.324;8.548;2023-06-22T02:35:09;16.45;;;10.68;;
32810;SDS011;65470;47.324;8.548;2023-06-22T02:37:35;14.85;;;10.20;;
32810;SDS011;65470;47.324;8.548;2023-06-22T02:40:06;18.27;;;9.98;;
32810;SDS011;65470;47.324;8.548;2023-06-22T02:42:34;17.40;;;10.30;;
32810;SDS011;65470;47.324;8.548;2023-06-22T02:45:00;22.00;;;10.88;;
32810;SDS011;65470;47.324;8.548;2023-06-22T02:47:26;18.45;;;9.65;;
32810;SDS011;65470;47.324;8.548;2023-06-22T02:49:51;15.15;;;10.00;;
32810;SDS011;65470;47.324;8.548;2023-06-22T02:52:17;11.75;;;9.93;;
32810;SDS011;65470;47.324;8.548;2023-06-22T02:54:43;15.63;;;9.25;;
32810;SDS011;65470;47.324;8.548;2023-06-22T02:57:11;18.48;;;10.70;;
32810;SDS011;65470;47.324;8.548;2023-06-22T02:59:39;16.42;;;10.18;;
32810;SDS011;65470;47.324;8.548;2023-06-22T03:02:06;16.92;;;10.55;;
32810;SDS011;65470;47.324;8.548;2023-06-22T03:04:32;17.63;;;10.82;;
32810;SDS011;65470;47.324;8.548;2023-06-22T03:06:59;17.08;;;10.20;;
32810;SDS011;65470;47.324;8.548;2023-06-22T03:09:26;20.42;;;10.18;;
32810;SDS011;65470;47.324;8.548;2023-06-22T03:11:55;12.75;;;9.77;;
32810;SDS011;65470;47.324;8.548;2023-06-22T03:14:20;18.35;;;11.35;;
32810;SDS011;65470;47.324;8.548;2023-06-22T03:16:46;20.83;;;10.85;;
32810;SDS011;65470;47.324;8.548;2023-06-22T03:19:12;18.55;;;9.63;;
32810;SDS011;65470;47.324;8.548;2023-06-22T03:21:38;14.65;;;10.38;;
32810;SDS011;65470;47.324;8.548;2023-06-22T03:24:05;17.25;;;11.20;;
32810;SDS011;65470;47.324;8.548;2023-06-22T03:26:31;15.05;;;10.23;;
32810;SDS011;65470;47.324;8.548;2023-06-22T03:28:57;15.98;;;10.57;;
32810;SDS011;65470;47.324;8.548;2023-06-22T03:31:23;23.15;;;10.23;;
32810;SDS011;65470;47.324;8.548;2023-06-22T03:33:48;20.70;;;10.73;;
32810;SDS011;65470;47.324;8.548;2023-06-22T03:36:15;17.08;;;10.90;;
32810;SDS011;65470;47.324;8.548;2023-06-22T03:38:44;15.52;;;9.82;;
32810;SDS011;65470;47.324;8.548;2023-06-22T03:41:10;17.05;;;10.80;;
32810;SDS011;65470;47.324;8.548;2023-06-22T03:43:36;15.70;;;9.55;;
32810;SDS011;65470;47.324;8.548;2023-06-22T03:46:02;17.17;;;10.43;;
32810;SDS011;65470;47.324;8.548;2023-06-22T03:48:27;17.25;;;10.20;;
32810;SDS011;65470;47.324;8.548;2023-06-22T03:50:53;17.08;;;12.00;;
32810;SDS011;65470;47.324;8.548;2023-06-22T03:53:19;14.95;;;10.40;;
32810;SDS011;65470;47.324;8.548;2023-06-22T03:55:48;20.67;;;11.23;;
32810;SDS011;65470;47.324;8.548;2023-06-22T03:58:15;18.08;;;10.05;;
32810;SDS011;65470;47.324;8.548;2023-06-22T04:00:43;22.23;;;12.02;;
32810;SDS011;65470;47.324;8.548;2023-06-22T04:03:13;18.75;;;11.38;;
32810;SDS011;65470;47.324;8.548;2023-06-22T04:05:40;16.85;;;11.55;;
32810;SDS011;65470;47.324;8.548;2023-06-22T04:08:06;21.58;;;11.57;;
32810;SDS011;65470;47.324;8.548;2023-06-22T04:10:32;16.80;;;11.07;;
32810;SDS011;65470;47.324;8.548;2023-06-22T04:12:58;24.25;;;11.27;;
32810;SDS011;65470;47.324;8.548;2023-06-22T04:15:23;21.38;;;11.40;;
32810;SDS011;65470;47.324;8.548;2023-06-22T04:17:49;20.65;;;11.75;;
32810;SDS011;65470;47.324;8.548;2023-06-22T04:20:14;19.50;;;11.95;;
32810;SDS011;65470;47.324;8.548;2023-06-22T04:22:40;23.80;;;11.60;;
32810;SDS011;65470;47.324;8.548;2023-06-22T04:25:06;26.17;;;12.27;;
32810;SDS011;65470;47.324;8.548;2023-06-22T04:27:35;18.58;;;11.40;;
32810;SDS011;65470;47.324;8.548;2023-06-22T04:30:02;14.65;;;11.20;;
32810;SDS011;65470;47.324;8.548;2023-06-22T04:32:29;17.83;;;11.23;;
32810;SDS011;65470;47.324;8.548;2023-06-22T04:34:54;19.42;;;11.48;;
32810;SDS011;65470;47.324;8.548;2023-06-22T04:37:20;14.45;;;10.82;;
32810;SDS011;65470;47.324;8.548;2023-06-22T04:39:48;18.02;;;11.52;;
32810;SDS011;65470;47.324;8.548;2023-06-22T04:42:14;20.92;;;11.25;;
32810;SDS011;65470;47.324;8.548;2023-06-22T04:44:40;17.98;;;11.57;;
32810;SDS011;65470;47.324;8.548;2023-06-22T04:47:06;21.77;;;11.38;;
32810;SDS011;65470;47.324;8.548;2023-06-22T04:49:34;19.30;;;12.10;;
32810;SDS011;65470;47.324;8.548;2023-06-22T04:52:02;20.73;;;11.20;;
32810;SDS011;65470;47.324;8.548;2023-06-22T04:54:29;19.95;;;10.57;;
32810;SDS011;65470;47.324;8.548;2023-06-22T04:57:06;17.08;;;10.05;;
32810;SDS011;65470;47.324;8.548;2023-06-22T04:59:36;17.45;;;11.15;;
32810;SDS011;65470;47.324;8.548;2023-06-22T05:02:04;12.90;;;10.75;;
32810;SDS011;65470;47.324;8.548;2023-06-22T05:04:30;19.90;;;11.35;;
32810;SDS011;65470;47.324;8.548;2023-06-22T05:06:56;14.63;;;11.20;;
32810;SDS011;65470;47.324;8.548;2023-06-22T05:09:23;17.45;;;10.82;;
32810;SDS011;65470;47.324;8.548;2023-06-22T05:11:50;19.33;;;11.52;;
32810;SDS011;65470;47.324;8.548;2023-06-22T05:14:16;21.23;;;11.32;;
32810;SDS011;65470;47.324;8.548;2023-06-22T05:16:43;20.70;;;12.32;;
32810;SDS011;65470;47.324;8.548;2023-06-22T05:19:09;23.33;;;11.85;;
32810;SDS011;65470;47.324;8.548;2023-06-22T05:21:35;20.70;;;11.63;;
32810;SDS011;65470;47.324;8.548;2023-06-22T05:24:01;21.27;;;11.63;;
32810;SDS011;65470;47.324;8.548;2023-06-22T05:26:28;21.40;;;11.95;;
32810;SDS011;65470;47.324;8.548;2023-06-22T05:28:58;21.98;;;13.20;;
32810;SDS011;65470;47.324;8.548;2023-06-22T05:31:26;19.20;;;13.05;;
32810;SDS011;65470;47.324;8.548;2023-06-22T05:33:52;17.83;;;11.90;;
32810;SDS011;65470;47.324;8.548;2023-06-22T05:36:19;21.45;;;12.93;;
32810;SDS011;65470;47.324;8.548;2023-06-22T05:38:46;16.83;;;11.32;;
32810;SDS011;65470;47.324;8.548;2023-06-22T05:41:12;18.10;;;11.25;;
32810;SDS011;65470;47.324;8.548;2023-06-22T05:43:37;20.60;;;11.80;;
32810;SDS011;65470;47.324;8.548;2023-06-22T05:46:03;22.98;;;12.70;;
32810;SDS011;65470;47.324;8.548;2023-06-22T05:48:30;20.35;;;12.00;;
32810;SDS011;65470;47.324;8.548;2023-06-22T05:50:55;19.20;;;11.52;;
32810;SDS011;65470;47.324;8.548;2023-06-22T05:53:21;17.65;;;11.57;;
32810;SDS011;65470;47.324;8.548;2023-06-22T05:55:47;25.20;;;12.18;;
32810;SDS011;65470;47.324;8.548;2023-06-22T05:58:13;24.80;;;10.55;;
32810;SDS011;65470;47.324;8.548;2023-06-22T06:00:39;17.42;;;11.20;;
32810;SDS011;65470;47.324;8.548;2023-06-22T06:03:06;21.15;;;11.57;;
32810;SDS011;65470;47.324;8.548;2023-06-22T06:05:33;21.55;;;11.45;;
32810;SDS011;65470;47.324;8.548;2023-06-22T06:08:00;16.67;;;11.77;;
32810;SDS011;65470;47.324;8.548;2023-06-22T06:10:26;19.15;;;11.18;;
32810;SDS011;65470;47.324;8.548;2023-06-22T06:12:52;21.00;;;11.73;;
32810;SDS011;65470;47.324;8.548;2023-06-22T06:15:18;19.67;;;10.85;;
32810;SDS011;65470;47.324;8.548;2023-06-22T06:17:51;25.85;;;12.40;;
32810;SDS011;65470;47.324;8.548;2023-06-22T06:20:18;18.08;;;10.50;;
32810;SDS011;65470;47.324;8.548;2023-06-22T06:22:45;16.92;;;10.07;;
32810;SDS011;65470;47.324;8.548;2023-06-22T06:25:11;21.65;;;11.05;;
32810;SDS011;65470;47.324;8.548;2023-06-22T06:27:41;18.90;;;11.32;;
32810;SDS011;65470;47.324;8.548;2023-06-22T06:30:08;21.63;;;11.60;;
32810;SDS011;65470;47.324;8.548;2023-06-22T06:32:35;18.08;;;11.23;;
32810;SDS011;65470;47.324;8.548;2023-06-22T06:35:00;21.33;;;11.18;;
32810;SDS011;65470;47.324;8.548;2023-06-22T06:37:26;17.13;;;11.32;;
32810;SDS011;65470;47.324;8.548;2023-06-22T06:39:52;23.75;;;11.18;;
32810;SDS011;65470;47.324;8.548;2023-06-22T06:42:18;15.98;;;11.38;;
32810;SDS011;65470;47.324;8.548;2023-06-22T06:44:44;15.15;;;11.25;;
32810;SDS011;65470;47.324;8.548;2023-06-22T06:47:10;19.73;;;11.32;;
32810;SDS011;65470;47.324;8.548;2023-06-22T06:49:36;21.20;;;10.73;;
32810;SDS011;65470;47.324;8.548;2023-06-22T06:52:01;18.17;;;10.30;;
32810;SDS011;65470;47.324;8.548;2023-06-22T06:54:27;17.33;;;11.70;;
32810;SDS011;65470;47.324;8.548;2023-06-22T06:56:53;27.90;;;11.85;;
32810;SDS011;65470;47.324;8.548;2023-06-22T06:59:18;19.13;;;10.43;;
32810;SDS011;65470;47.324;8.548;2023-06-22T07:01:44;18.30;;;11.65;;
32810;SDS011;65470;47.324;8.548;2023-06-22T07:04:10;17.52;;;9.90;;
32810;SDS011;65470;47.324;8.548;2023-06-22T07:06:36;22.55;;;11.32;;
32810;SDS011;65470;47.324;8.548;2023-06-22T07:09:02;20.73;;;10.63;;
32810;SDS011;65470;47.324;8.548;2023-06-22T07:11:28;21.55;;;12.07;;
32810;SDS011;65470;47.324;8.548;2023-06-22T07:13:54;17.10;;;10.40;;
32810;SDS011;65470;47.324;8.548;2023-06-22T07:16:19;15.73;;;10.02;;
32810;SDS011;65470;47.324;8.548;2023-06-22T07:18:45;21.65;;;11.68;;
32810;SDS011;65470;47.324;8.548;2023-06-22T07:21:11;19.75;;;11.25;;
32810;SDS011;65470;47.324;8.548;2023-06-22T07:23:36;21.30;;;11.05;;
32810;SDS011;65470;47.324;8.548;2023-06-22T07:26:02;22.73;;;9.57;;
32810;SDS011;65470;47.324;8.548;2023-06-22T07:28:28;19.88;;;10.27;;
32810;SDS011;65470;47.324;8.548;2023-06-22T07:30:56;15.60;;;11.10;;
32810;SDS011;65470;47.324;8.548;2023-06-22T07:33:22;16.42;;;10.85;;
32810;SDS011;65470;47.324;8.548;2023-06-22T07:35:48;21.45;;;10.52;;
32810;SDS011;65470;47.324;8.548;2023-06-22T07:38:16;18.15;;;10.32;;
32810;SDS011;65470;47.324;8.548;2023-06-22T07:40:41;20.35;;;10.68;;
32810;SDS011;65470;47.324;8.548;2023-06-22T07:43:07;20.75;;;10.57;;
32810;SDS011;65470;47.324;8.548;2023-06-22T07:45:32;15.50;;;10.85;;
32810;SDS011;65470;47.324;8.548;2023-06-22T07:48:01;21.75;;;10.70;;
32810;SDS011;65470;47.324;8.548;2023-06-22T07:50:27;19.67;;;10.55;;
32810;SDS011;65470;47.324;8.548;2023-06-22T07:52:52;17.00;;;10.63;;
32810;SDS011;65470;47.324;8.548;2023-06-22T07:55:18;19.70;;;12.02;;
32810;SDS011;65470;47.324;8.548;2023-06-22T07:57:43;20.02;;;12.57;;
32810;SDS011;65470;47.324;8.548;2023-06-22T08:00:12;17.92;;;10.98;;
32810;SDS011;65470;47.324;8.548;2023-06-22T08:02:40;17.10;;;10.68;;
32810;SDS011;65470;47.324;8.548;2023-06-22T08:05:06;19.20;;;11.73;;
32810;SDS011;65470;47.324;8.548;2023-06-22T08:07:33;18.20;;;10.80;;
32810;SDS011;65470;47.324;8.548;2023-06-22T08:10:02;23.52;;;10.35;;
32810;SDS011;65470;47.324;8.548;2023-06-22T08:12:28;17.00;;;10.73;;
32810;SDS011;65470;47.324;8.548;2023-06-22T08:14:53;15.48;;;9.48;;
32810;SDS011;65470;47.324;8.548;2023-06-22T08:17:19;15.73;;;10.15;;
32810;SDS011;65470;47.324;8.548;2023-06-22T08:19:45;19.75;;;10.80;;
32810;SDS011;65470;47.324;8.548;2023-06-22T08:22:10;18.67;;;10.75;;
32810;SDS011;65470;47.324;8.548;2023-06-22T08:24:36;18.27;;;9.55;;
32810;SDS011;65470;47.324;8.548;2023-06-22T08:27:03;17.80;;;10.27;;
32810;SDS011;65470;47.324;8.548;2023-06-22T08:29:33;19.55;;;10.82;;
32810;SDS011;65470;47.324;8.548;2023-06-22T08:31:59;14.20;;;9.38;;
32810;SDS011;65470;47.324;8.548;2023-06-22T08:34:24;15.70;;;9.90;;
32810;SDS011;65470;47.324;8.548;2023-06-22T08:36:50;15.90;;;9.43;;
32810;SDS011;65470;47.324;8.548;2023-06-22T08:39:18;13.45;;;8.77;;
32810;SDS011;65470;47.324;8.548;2023-06-22T08:41:45;17.27;;;10.25;;
32810;SDS011;65470;47.324;8.548;2023-06-22T08:44:11;17.95;;;10.77;;
32810;SDS011;65470;47.324;8.548;2023-06-22T08:46:37;19.77;;;10.82;;
32810;SDS011;65470;47.324;8.548;2023-06-22T08:49:03;13.88;;;9.70;;
32810;SDS011;65470;47.324;8.548;2023-06-22T08:51:29;20.25;;;10.85;;
32810;SDS011;65470;47.324;8.548;2023-06-22T08:53:55;19.23;;;9.63;;
32810;SDS011;65470;47.324;8.548;2023-06-22T08:56:20;27.90;;;11.57;;
32810;SDS011;65470;47.324;8.548;2023-06-22T08:58:46;18.98;;;10.23;;
32810;SDS011;65470;47.324;8.548;2023-06-22T09:01:11;24.92;;;10.52;;
32810;SDS011;65470;47.324;8.548;2023-06-22T09:03:37;18.90;;;10.38;;
32810;SDS011;65470;47.324;8.548;2023-06-22T09:06:03;20.60;;;11.70;;
32810;SDS011;65470;47.324;8.548;2023-06-22T09:08:28;18.00;;;10.68;;
32810;SDS011;65470;47.324;8.548;2023-06-22T09:10:54;20.17;;;11.15;;
32810;SDS011;65470;47.324;8.548;2023-06-22T09:13:20;19.08;;;11.30;;
32810;SDS011;65470;47.324;8.548;2023-06-22T09:15:47;19.60;;;11.77;;
32810;SDS011;65470;47.324;8.548;2023-06-22T09:18:13;19.10;;;10.93;;
32810;SDS011;65470;47.324;8.548;2023-06-22T09:20:39;27.42;;;14.95;;
32810;SDS011;65470;47.324;8.548;2023-06-22T09:23:04;24.27;;;11.98;;
32810;SDS011;65470;47.324;8.548;2023-06-22T09:25:30;21.10;;;11.40;;
32810;SDS011;65470;47.324;8.548;2023-06-22T09:27:56;17.27;;;13.57;;
32810;SDS011;65470;47.324;8.548;2023-06-22T09:30:21;20.95;;;10.65;;
32810;SDS011;65470;47.324;8.548;2023-06-22T09:32:47;16.02;;;9.68;;
32810;SDS011;65470;47.324;8.548;2023-06-22T09:35:13;21.73;;;8.85;;
32810;SDS011;65470;47.324;8.548;2023-06-22T09:37:39;16.50;;;8.90;;
32810;SDS011;65470;47.324;8.548;2023-06-22T09:40:06;15.77;;;9.30;;
32810;SDS011;65470;47.324;8.548;2023-06-22T09:42:37;16.50;;;10.43;;
32810;SDS011;65470;47.324;8.548;2023-06-22T09:45:03;18.80;;;10.38;;
32810;SDS011;65470;47.324;8.548;2023-06-22T09:47:29;23.52;;;11.65;;
32810;SDS011;65470;47.324;8.548;2023-06-22T09:49:55;19.08;;;10.18;;
32810;SDS011;65470;47.324;8.548;2023-06-22T09:52:21;19.00;;;10.65;;
32810;SDS011;65470;47.324;8.548;2023-06-22T09:54:47;19.63;;;11.73;;
32810;SDS011;65470;47.324;8.548;2023-06-22T09:57:13;18.77;;;11.65;;
32810;SDS011;65470;47.324;8.548;2023-06-22T09:59:38;19.83;;;11.00;;
32810;SDS011;65470;47.324;8.548;2023-06-22T10:02:07;28.38;;;15.90;;
32810;SDS011;65470;47.324;8.548;2023-06-22T10:04:35;22.15;;;15.63;;
32810;SDS011;65470;47.324;8.548;2023-06-22T10:07:01;13.68;;;10.82;;
32810;SDS011;65470;47.324;8.548;2023-06-22T10:09:27;24.25;;;11.05;;
32810;SDS011;65470;47.324;8.548;2023-06-22T10:11:53;24.90;;;11.95;;
32810;SDS011;65470;47.324;8.548;2023-06-22T10:14:19;21.25;;;11.85;;
32810;SDS011;65470;47.324;8.548;2023-06-22T10:16:45;23.13;;;13.00;;
32810;SDS011;65470;47.324;8.548;2023-06-22T10:19:10;19.27;;;11.55;;
32810;SDS011;65470;47.324;8.548;2023-06-22T10:21:36;21.05;;;12.20;;
32810;SDS011;65470;47.324;8.548;2023-06-22T10:24:01;22.92;;;12.27;;
32810;SDS011;65470;47.324;8.548;2023-06-22T10:26:34;21.15;;;12.68;;
32810;SDS011;65470;47.324;8.548;2023-06-22T10:29:00;16.92;;;11.15;;
32810;SDS011;65470;47.324;8.548;2023-06-22T10:31:29;17.92;;;12.43;;
32810;SDS011;65470;47.324;8.548;2023-06-22T10:33:55;19.30;;;13.27;;
32810;SDS011;65470;47.324;8.548;2023-06-22T10:36:21;17.05;;;15.07;;
32810;SDS011;65470;47.324;8.548;2023-06-22T10:38:47;23.23;;;19.80;;
32810;SDS011;65470;47.324;8.548;2023-06-22T10:41:13;15.80;;;12.93;;
32810;SDS011;65470;47.324;8.548;2023-06-22T10:43:39;17.92;;;12.13;;
32810;SDS011;65470;47.324;8.548;2023-06-22T10:46:06;18.70;;;10.75;;
32810;SDS011;65470;47.324;8.548;2023-06-22T10:48:32;15.32;;;11.07;;
32810;SDS011;65470;47.324;8.548;2023-06-22T10:50:58;15.73;;;12.98;;
32810;SDS011;65470;47.324;8.548;2023-06-22T10:53:23;22.80;;;13.30;;
32810;SDS011;65470;47.324;8.548;2023-06-22T10:55:49;18.92;;;14.52;;
32810;SDS011;65470;47.324;8.548;2023-06-22T10:58:15;21.20;;;13.55;;
32810;SDS011;65470;47.324;8.548;2023-06-22T11:00:42;15.65;;;12.68;;
32810;SDS011;65470;47.324;8.548;2023-06-22T11:03:08;20.55;;;15.80;;
32810;SDS011;65470;47.324;8.548;2023-06-22T11:05:34;24.10;;;16.50;;
32810;SDS011;65470;47.324;8.548;2023-06-22T11:07:59;23.13;;;16.42;;
32810;SDS011;65470;47.324;8.548;2023-06-22T11:10:25;28.27;;;13.63;;
32810;SDS011;65470;47.324;8.548;2023-06-22T11:12:51;21.83;;;16.60;;
32810;SDS011;65470;47.324;8.548;2023-06-22T11:15:18;25.20;;;17.25;;
32810;SDS011;65470;47.324;8.548;2023-06-22T11:17:43;22.90;;;13.20;;
32810;SDS011;65470;47.324;8.548;2023-06-22T11:20:09;18.88;;;13.07;;
32810;SDS011;65470;47.324;8.548;2023-06-22T11:22:36;22.92;;;12.85;;
32810;SDS011;65470;47.324;8.548;2023-06-22T11:25:04;21.38;;;11.88;;
32810;SDS011;65470;47.324;8.548;2023-06-22T11:27:30;18.10;;;11.23;;
32810;SDS011;65470;47.324;8.548;2023-06-22T11:29:56;18.50;;;11.82;;
32810;SDS011;65470;47.324;8.548;2023-06-22T11:32:22;22.25;;;11.45;;
32810;SDS011;65470;47.324;8.548;2023-06-22T11:34:47;22.63;;;13.10;;
32810;SDS011;65470;47.324;8.548;2023-06-22T11:37:13;26.73;;;12.23;;
32810;SDS011;65470;47.324;8.548;2023-06-22T11:39:40;21.80;;;11.75;;
32810;SDS011;65470;47.324;8.548;2023-06-22T11:42:06;18.40;;;10.65;;
32810;SDS011;65470;47.324;8.548;2023-06-22T11:44:32;19.63;;;10.48;;
32810;SDS011;65470;47.324;8.548;2023-06-22T11:46:57;25.73;;;10.90;;
32810;SDS011;65470;47.324;8.548;2023-06-22T11:49:25;15.93;;;10.75;;
32810;SDS011;65470;47.324;8.548;2023-06-22T11:51:51;27.60;;;13.88;;
32810;SDS011;65470;47.324;8.548;2023-06-22T11:54:17;18.70;;;11.32;;
32810;SDS011;65470;47.324;8.548;2023-06-22T11:56:42;16.02;;;10.75;;
32810;SDS011;65470;47.324;8.548;2023-06-22T11:59:08;18.73;;;10.30;;
32810;SDS011;65470;47.324;8.548;2023-06-22T12:01:34;19.10;;;11.57;;
32810;SDS011;65470;47.324;8.548;2023-06-22T12:03:59;18.65;;;10.52;;
32810;SDS011;65470;47.324;8.548;2023-06-22T12:06:25;22.30;;;10.20;;
32810;SDS011;65470;47.324;8.548;2023-06-22T12:08:51;18.08;;;9.38;;
32810;SDS011;65470;47.324;8.548;2023-06-22T12:11:16;11.90;;;8.73;;
32810;SDS011;65470;47.324;8.548;2023-06-22T12:13:42;18.08;;;9.68;;
32810;SDS011;65470;47.324;8.548;2023-06-22T12:16:07;24.65;;;10.43;;
32810;SDS011;65470;47.324;8.548;2023-06-22T12:18:33;24.70;;;9.90;;
32810;SDS011;65470;47.324;8.548;2023-06-22T12:20:58;20.25;;;9.80;;
32810;SDS011;65470;47.324;8.548;2023-06-22T12:23:24;16.00;;;9.60;;
32810;SDS011;65470;47.324;8.548;2023-06-22T12:25:50;23.25;;;9.77;;
32810;SDS011;65470;47.324;8.548;2023-06-22T12:28:15;20.15;;;10.18;;
32810;SDS011;65470;47.324;8.548;2023-06-22T12:30:41;17.73;;;9.98;;
32810;SDS011;65470;47.324;8.548;2023-06-22T12:33:06;17.55;;;9.25;;
32810;SDS011;65470;47.324;8.548;2023-06-22T12:35:32;20.92;;;10.23;;
32810;SDS011;65470;47.324;8.548;2023-06-22T12:37:58;18.77;;;9.88;;
32810;SDS011;65470;47.324;8.548;2023-06-22T12:40:24;17.33;;;9.27;;
32810;SDS011;65470;47.324;8.548;2023-06-22T12:42:49;16.85;;;9.40;;
32810;SDS011;65470;47.324;8.548;2023-06-22T12:45:15;15.27;;;9.38;;
32810;SDS011;65470;47.324;8.548;2023-06-22T12:47:41;20.33;;;9.45;;
32810;SDS011;65470;47.324;8.548;2023-06-22T12:50:06;19.98;;;9.45;;
32810;SDS011;65470;47.324;8.548;2023-06-22T12:52:32;19.77;;;9.80;;
32810;SDS011;65470;47.324;8.548;2023-06-22T12:54:58;16.20;;;8.07;;
32810;SDS011;65470;47.324;8.548;2023-06-22T12:57:23;16.90;;;9.95;;
32810;SDS011;65470;47.324;8.548;2023-06-22T12:59:50;14.90;;;9.43;;
32810;SDS011;65470;47.324;8.548;2023-06-22T13:02:16;22.52;;;7.43;;
32810;SDS011;65470;47.324;8.548;2023-06-22T13:04:41;17.85;;;8.02;;
32810;SDS011;65470;47.324;8.548;2023-06-22T13:07:08;16.02;;;7.97;;
32810;SDS011;65470;47.324;8.548;2023-06-22T13:09:33;17.10;;;7.43;;
32810;SDS011;65470;47.324;8.548;2023-06-22T13:12:01;20.85;;;7.53;;
32810;SDS011;65470;47.324;8.548;2023-06-22T13:14:27;18.40;;;8.05;;
32810;SDS011;65470;47.324;8.548;2023-06-22T13:16:53;17.73;;;6.93;;
32810;SDS011;65470;47.324;8.548;2023-06-22T13:19:18;21.92;;;7.78;;
32810;SDS011;65470;47.324;8.548;2023-06-22T13:21:44;17.42;;;5.93;;
32810;SDS011;65470;47.324;8.548;2023-06-22T13:24:09;12.00;;;6.18;;
32810;SDS011;65470;47.324;8.548;2023-06-22T13:26:35;20.63;;;5.93;;
32810;SDS011;65470;47.324;8.548;2023-06-22T13:29:01;14.48;;;6.15;;
32810;SDS011;65470;47.324;8.548;2023-06-22T13:31:26;14.10;;;5.63;;
32810;SDS011;65470;47.324;8.548;2023-06-22T13:33:52;13.35;;;6.53;;
32810;SDS011;65470;47.324;8.548;2023-06-22T13:36:18;13.25;;;4.90;;
32810;SDS011;65470;47.324;8.548;2023-06-22T13:38:43;14.48;;;5.75;;
32810;SDS011;65470;47.324;8.548;2023-06-22T13:41:09;15.50;;;5.07;;
32810;SDS011;65470;47.324;8.548;2023-06-22T13:43:35;13.35;;;6.07;;
32810;SDS011;65470;47.324;8.548;2023-06-22T13:46:00;18.60;;;6.18;;
32810;SDS011;65470;47.324;8.548;2023-06-22T13:48:26;12.75;;;5.38;;
32810;SDS011;65470;47.324;8.548;2023-06-22T13:50:53;13.85;;;4.82;;
32810;SDS011;65470;47.324;8.548;2023-06-22T13:53:19;14.23;;;4.53;;
32810;SDS011;65470;47.324;8.548;2023-06-22T13:55:45;24.70;;;5.05;;
32810;SDS011;65470;47.324;8.548;2023-06-22T13:58:11;10.35;;;4.25;;
32810;SDS011;65470;47.324;8.548;2023-06-22T14:00:37;12.85;;;5.22;;
32810;SDS011;65470;47.324;8.548;2023-06-22T14:03:03;13.60;;;5.13;;
32810;SDS011;65470;47.324;8.548;2023-06-22T14:05:28;13.68;;;5.15;;
32810;SDS011;65470;47.324;8.548;2023-06-22T14:07:54;14.30;;;4.97;;
32810;SDS011;65470;47.324;8.548;2023-06-22T14:10:19;13.98;;;5.15;;
32810;SDS011;65470;47.324;8.548;2023-06-22T14:12:45;17.17;;;6.00;;
32810;SDS011;65470;47.324;8.548;2023-06-22T14:15:11;16.40;;;5.57;;
32810;SDS011;65470;47.324;8.548;2023-06-22T14:17:36;15.20;;;5.05;;
32810;SDS011;65470;47.324;8.548;2023-06-22T14:20:02;17.05;;;5.07;;
32810;SDS011;65470;47.324;8.548;2023-06-22T14:22:28;17.27;;;5.60;;
32810;SDS011;65470;47.324;8.548;2023-06-22T14:24:54;14.60;;;4.82;;
32810;SDS011;65470;47.324;8.548;2023-06-22T14:27:22;12.82;;;4.78;;
32810;SDS011;65470;47.324;8.548;2023-06-22T14:29:48;19.33;;;6.00;;